SCKM weather

Cochamó Airport
Cochamo, Los Lagos Region, Chile

Public forecast

Using degrees Celsius for public forecast. Weather courtesy of forecast.io.

Closest aviation weather report (METAR) to Cochamó Airport

Closest report is El Tepual Airport, 35.8 nm (66.3 km) W. Retrieved 2019/10/19 03:00 UTC (58 minutes ago):

SCTE 190300Z 22006KT CAVOK 08/07 Q1020 NOSIG

Closest aviation forecast (TAF) to Cochamó Airport

Closest forecast is El Tepual Airport, 35.8 nm (66.3 km) W. Retrieved 2019-10-19 00:00 UTC (4 hours ago):

TAF SCTE 182238Z 1900/1924 18012KT CAVOK TN05/1912Z TX18/1919Z BECMG 1902/1904 17005KT TEMPO 1907/1910 VRB03KT 2000 BR SCT005 BECMG 1915/1917 17010KT BECMG 1919/1921 26010KT FEW030